createdAt,value
2023-04-12T00:01:33.476Z,9.89
2023-04-12T00:04:00.698Z,9.91
2023-04-12T00:06:28.376Z,9.94
2023-04-12T00:08:55.281Z,9.91
2023-04-12T00:11:23.458Z,9.90
2023-04-12T00:13:50.560Z,9.84
2023-04-12T00:16:17.512Z,9.99
2023-04-12T00:18:46.462Z,10.08
2023-04-12T00:21:14.034Z,10.18
2023-04-12T00:23:41.178Z,10.08
2023-04-12T00:26:08.325Z,9.97
2023-04-12T00:28:35.440Z,9.75
2023-04-12T00:31:02.927Z,9.57
2023-04-12T00:33:29.820Z,9.40
2023-04-12T00:36:00.308Z,9.31
2023-04-12T00:38:27.319Z,9.19
2023-04-12T00:40:54.294Z,9.13
2023-04-12T00:43:21.811Z,9.10
2023-04-12T00:45:49.711Z,9.07
2023-04-12T00:48:17.028Z,9.11
2023-04-12T00:50:44.142Z,9.21
2023-04-12T00:53:14.536Z,9.06
2023-04-12T00:55:44.658Z,8.91
2023-04-12T00:58:11.707Z,8.84
2023-04-12T01:00:38.570Z,8.88
2023-04-12T01:03:06.979Z,8.85
2023-04-12T01:05:43.614Z,8.88
2023-04-12T01:08:23.875Z,8.81
2023-04-12T01:11:03.657Z,8.70
2023-04-12T01:13:41.688Z,8.73
2023-04-12T01:16:18.088Z,8.68
2023-04-12T01:18:52.268Z,8.67
2023-04-12T01:21:31.231Z,8.62
2023-04-12T01:24:26.107Z,8.55
2023-04-12T01:26:56.067Z,8.47
2023-04-12T01:29:30.052Z,8.41
2023-04-12T01:32:01.731Z,8.34
2023-04-12T01:34:33.279Z,8.29
2023-04-12T01:37:03.664Z,8.24
2023-04-12T01:39:33.615Z,8.20
2023-04-12T01:42:00.830Z,8.15
2023-04-12T01:44:30.034Z,8.16
2023-04-12T01:46:57.185Z,8.20
2023-04-12T01:49:39.312Z,8.22
2023-04-12T01:52:13.940Z,8.21
2023-04-12T01:54:44.654Z,8.19
2023-04-12T01:57:14.937Z,8.03
2023-04-12T01:59:46.458Z,8.10
2023-04-12T02:02:18.682Z,8.00
2023-04-12T02:04:47.747Z,8.06
2023-04-12T02:07:17.050Z,7.95
2023-04-12T02:09:45.351Z,7.89
2023-04-12T02:12:12.436Z,7.86
2023-04-12T02:14:39.574Z,7.91
2023-04-12T02:17:07.924Z,7.90
2023-04-12T02:19:34.871Z,7.93
2023-04-12T02:22:01.892Z,8.00
2023-04-12T02:24:29.554Z,8.09
2023-04-12T02:26:58.555Z,8.19
2023-04-12T02:29:25.574Z,8.21
2023-04-12T02:31:52.599Z,8.27
2023-04-12T02:34:21.828Z,8.19
2023-04-12T02:36:56.054Z,8.22
2023-04-12T02:39:23.097Z,8.23
2023-04-12T02:41:51.916Z,8.18
2023-04-12T02:44:19.070Z,8.20
2023-04-12T02:47:05.473Z,8.17
2023-04-12T02:49:35.280Z,8.16
2023-04-12T02:52:03.021Z,8.14
2023-04-12T02:54:39.295Z,8.08
2023-04-12T02:57:08.430Z,8.13
2023-04-12T02:59:39.853Z,8.09
2023-04-12T03:02:15.225Z,8.09
2023-04-12T03:04:43.502Z,8.11
2023-04-12T03:12:15.649Z,8.08
2023-04-12T03:15:39.024Z,8.18
2023-04-12T03:18:07.104Z,7.99
2023-04-12T03:20:47.501Z,8.07
2023-04-12T03:23:15.281Z,7.99
2023-04-12T03:25:49.573Z,8.09
2023-04-12T03:28:34.835Z,7.96
2023-04-12T03:31:05.348Z,7.99
2023-04-12T03:33:46.721Z,7.84
2023-04-12T03:36:24.141Z,7.92
2023-04-12T03:39:14.025Z,7.85
2023-04-12T03:41:41.005Z,7.81
2023-04-12T03:44:08.554Z,7.81
2023-04-12T03:46:36.445Z,7.76
2023-04-12T03:49:07.928Z,7.77
2023-04-12T03:51:36.684Z,7.86
2023-04-12T03:54:04.046Z,7.87
2023-04-12T03:56:40.040Z,7.87
2023-04-12T03:59:13.112Z,7.82
2023-04-12T04:01:41.753Z,7.84
2023-04-12T04:04:09.221Z,7.84
2023-04-12T04:06:37.713Z,7.84
2023-04-12T04:09:05.637Z,7.83
2023-04-12T04:11:35.478Z,7.90
2023-04-12T04:14:08.233Z,7.89
2023-04-12T04:16:36.039Z,7.85
2023-04-12T04:19:05.324Z,7.82
2023-04-12T04:21:33.550Z,7.79
2023-04-12T04:24:02.051Z,7.78
2023-04-12T04:26:35.121Z,7.76
2023-04-12T04:29:09.471Z,7.76
2023-04-12T04:32:04.621Z,7.77
2023-04-12T04:34:32.884Z,7.72
2023-04-12T04:37:09.781Z,7.72
2023-04-12T04:39:39.174Z,7.73
2023-04-12T04:42:06.883Z,7.75
2023-04-12T04:44:45.421Z,7.75
2023-04-12T04:47:12.365Z,7.79
2023-04-12T04:49:39.266Z,7.77
2023-04-12T04:52:19.505Z,7.76
2023-04-12T04:54:49.429Z,7.76
2023-04-12T04:57:16.487Z,7.79
2023-04-12T04:59:43.773Z,7.80
2023-04-12T05:02:15.343Z,7.80
2023-04-12T05:04:42.562Z,7.83
2023-04-12T05:07:12.046Z,7.87
2023-04-12T05:09:39.103Z,7.88
2023-04-12T05:12:07.720Z,7.88
2023-04-12T05:14:46.735Z,7.87
2023-04-12T05:17:14.853Z,7.88
2023-04-12T05:19:43.795Z,7.88
2023-04-12T05:22:10.773Z,7.81
2023-04-12T05:24:56.903Z,7.81
2023-04-12T05:27:29.682Z,7.82
2023-04-12T05:29:58.514Z,7.80
2023-04-12T05:32:26.382Z,7.82
2023-04-12T05:34:54.044Z,7.83
2023-04-12T05:37:24.910Z,7.81
2023-04-12T05:39:53.531Z,7.81
2023-04-12T05:42:20.377Z,7.86
2023-04-12T05:44:49.893Z,7.86
2023-04-12T05:47:17.764Z,7.86
2023-04-12T05:49:44.929Z,7.85
2023-04-12T05:52:12.589Z,7.89
2023-04-12T05:54:40.100Z,7.88
2023-04-12T05:57:09.236Z,7.90
2023-04-12T05:59:36.085Z,7.94
2023-04-12T06:02:04.776Z,7.96
2023-04-12T06:04:46.835Z,7.97
2023-04-12T06:07:17.109Z,8.03
2023-04-12T06:09:44.408Z,8.06
2023-04-12T06:12:12.266Z,8.15
2023-04-12T06:14:40.435Z,8.14
2023-04-12T06:17:10.626Z,8.13
2023-04-12T06:19:37.539Z,8.16
2023-04-12T06:22:04.633Z,8.22
2023-04-12T06:24:32.672Z,8.26
2023-04-12T06:26:59.660Z,8.25
2023-04-12T06:29:26.637Z,8.29
2023-04-12T06:31:53.562Z,8.30
2023-04-12T06:34:22.747Z,8.35
2023-04-12T06:36:50.656Z,8.36
2023-04-12T06:40:09.272Z,8.35
2023-04-12T06:42:36.676Z,8.32
2023-04-12T06:45:04.531Z,8.40
2023-04-12T06:47:33.734Z,8.42
2023-04-12T06:50:01.979Z,8.48
2023-04-12T06:52:29.019Z,8.49
2023-04-12T06:54:56.383Z,8.59
2023-04-12T06:57:23.303Z,8.61
2023-04-12T06:59:50.327Z,8.61
2023-04-12T07:02:56.383Z,8.63
2023-04-12T07:05:25.544Z,8.62
2023-04-12T07:07:52.898Z,8.62
2023-04-12T07:10:21.904Z,8.64
2023-04-12T07:12:48.774Z,8.65
2023-04-12T07:15:15.960Z,8.63
2023-04-12T07:17:42.830Z,8.64
2023-04-12T07:20:11.494Z,8.65
2023-04-12T07:22:40.207Z,8.70
2023-04-12T07:25:08.207Z,8.72
2023-04-12T07:27:34.997Z,8.78
2023-04-12T07:30:02.078Z,8.82
2023-04-12T07:32:29.031Z,8.85
2023-04-12T07:34:56.269Z,8.89
2023-04-12T07:37:23.526Z,8.89
2023-04-12T07:39:51.759Z,8.88
2023-04-12T07:42:18.779Z,8.96
2023-04-12T07:44:45.890Z,9.00
2023-04-12T07:47:12.957Z,9.02
2023-04-12T07:49:39.982Z,9.08
2023-04-12T07:52:06.950Z,9.06
2023-04-12T07:55:14.843Z,9.05
2023-04-12T07:57:42.232Z,9.06
2023-04-12T08:00:10.956Z,9.14
2023-04-12T08:02:43.131Z,9.17
2023-04-12T08:05:10.604Z,9.27
2023-04-12T08:07:38.730Z,9.29
2023-04-12T08:10:08.031Z,9.28
2023-04-12T08:12:36.777Z,9.36
2023-04-12T08:15:04.445Z,9.39
2023-04-12T08:17:31.519Z,9.40
2023-04-12T08:19:58.475Z,9.47
2023-04-12T08:22:25.569Z,9.51
2023-04-12T08:24:52.619Z,9.54
2023-04-12T08:27:19.788Z,9.56
2023-04-12T08:29:48.192Z,9.60
2023-04-12T08:32:15.212Z,9.68
2023-04-12T08:34:44.864Z,9.70
2023-04-12T08:37:13.201Z,9.79
2023-04-12T08:39:40.812Z,9.76
2023-04-12T08:42:08.918Z,9.76
2023-04-12T08:44:41.836Z,9.71
2023-04-12T08:47:13.640Z,9.80
2023-04-12T08:49:41.471Z,9.81
2023-04-12T08:52:10.350Z,9.88
2023-04-12T08:54:38.448Z,9.92
2023-04-12T08:57:08.210Z,9.96
2023-04-12T08:59:39.884Z,10.08
2023-04-12T09:02:08.860Z,10.03
2023-04-12T09:04:49.044Z,10.22
2023-04-12T09:07:17.006Z,10.22
2023-04-12T09:09:45.960Z,10.29
2023-04-12T09:12:14.719Z,10.34
2023-04-12T09:14:43.364Z,10.40
2023-04-12T09:17:23.386Z,10.36
2023-04-12T09:19:53.272Z,10.47
2023-04-12T09:22:32.933Z,10.49
2023-04-12T09:24:59.871Z,10.61
2023-04-12T09:27:27.715Z,10.70
2023-04-12T09:30:07.486Z,10.69
2023-04-12T09:32:34.965Z,10.77
2023-04-12T09:35:04.732Z,10.80
2023-04-12T09:37:32.112Z,10.72
2023-04-12T09:40:02.439Z,10.70
2023-04-12T09:42:33.721Z,10.73
2023-04-12T09:45:19.710Z,10.75
2023-04-12T09:47:47.358Z,10.73
2023-04-12T09:50:22.941Z,10.73
2023-04-12T09:52:51.062Z,10.83
2023-04-12T09:55:20.933Z,10.88
2023-04-12T09:57:52.589Z,10.96
2023-04-12T10:00:46.860Z,11.08
2023-04-12T10:03:21.849Z,11.22
2023-04-12T10:05:50.494Z,11.24
2023-04-12T10:08:18.852Z,11.33
2023-04-12T10:10:46.150Z,11.43
2023-04-12T10:13:15.690Z,11.43
2023-04-12T10:15:47.083Z,11.51
2023-04-12T10:18:18.751Z,11.55
2023-04-12T10:20:46.934Z,11.61
2023-04-12T10:23:22.098Z,11.67
2023-04-12T10:25:50.470Z,11.74
2023-04-12T10:28:20.790Z,11.92
2023-04-12T10:30:49.358Z,12.16
2023-04-12T10:33:27.055Z,12.12
2023-04-12T10:36:00.271Z,12.19
2023-04-12T10:38:44.617Z,12.14
2023-04-12T10:41:16.745Z,12.20
2023-04-12T11:04:13.583Z,12.79
2023-04-12T11:06:55.373Z,12.92
2023-04-12T11:09:42.965Z,13.11
2023-04-12T11:12:15.888Z,13.15
2023-04-12T11:14:48.684Z,13.19
2023-04-12T11:17:24.357Z,13.23
2023-04-12T11:19:58.033Z,13.18
2023-04-12T11:22:31.178Z,13.26
2023-04-12T11:25:02.534Z,13.21
2023-04-12T11:27:30.706Z,13.23
2023-04-12T11:29:59.940Z,13.24
2023-04-12T11:32:29.426Z,13.29
2023-04-12T11:34:58.949Z,13.37
2023-04-12T11:37:31.006Z,13.27
2023-04-12T11:39:59.079Z,13.60
2023-04-12T11:42:27.588Z,13.77
2023-04-12T11:45:00.245Z,13.72
2023-04-12T11:47:32.159Z,13.80
2023-04-12T11:50:00.551Z,13.75
2023-04-12T11:52:30.133Z,13.85
2023-04-12T11:55:01.087Z,13.85
2023-04-12T11:57:29.121Z,13.90
2023-04-12T12:00:01.577Z,13.96
2023-04-12T12:02:32.841Z,14.07
2023-04-12T12:09:11.604Z,14.11
2023-04-12T12:11:38.782Z,14.04
2023-04-12T12:14:05.846Z,14.11
2023-04-12T12:16:32.979Z,14.07
2023-04-12T12:19:04.618Z,14.07
2023-04-12T12:21:31.470Z,14.08
2023-04-12T12:24:25.300Z,14.07
2023-04-12T12:26:52.220Z,14.10
2023-04-12T12:29:19.265Z,14.12
2023-04-12T12:31:47.446Z,14.19
2023-04-12T12:34:16.009Z,14.20
2023-04-12T12:36:43.169Z,14.27
2023-04-12T12:42:59.859Z,14.26
2023-04-12T12:45:29.347Z,14.42
2023-04-12T12:47:59.814Z,14.49
2023-04-12T12:50:30.159Z,14.66
2023-04-12T12:52:58.723Z,14.77
2023-04-12T12:55:28.536Z,14.69
2023-04-12T13:00:29.466Z,14.71
2023-04-12T13:02:56.631Z,14.69
2023-04-12T13:05:25.198Z,14.77
2023-04-12T13:07:53.004Z,14.86
2023-04-12T13:10:19.944Z,14.96
2023-04-12T13:12:47.025Z,14.95
2023-04-12T13:15:22.028Z,15.02
2023-04-12T13:17:53.553Z,14.97
2023-04-12T13:20:21.248Z,14.92
2023-04-12T13:22:48.647Z,14.90
2023-04-12T13:25:15.738Z,14.92
2023-04-12T13:27:42.642Z,14.94
2023-04-12T13:30:35.678Z,14.96
2023-04-12T13:33:04.352Z,14.97
2023-04-12T13:35:31.964Z,14.92
2023-04-12T13:37:59.115Z,14.87
2023-04-12T13:40:28.070Z,14.84
2023-04-12T13:42:55.278Z,14.74
2023-04-12T13:45:23.302Z,14.86
2023-04-12T13:47:53.880Z,14.93
2023-04-12T13:50:22.737Z,15.11
2023-04-12T13:52:49.732Z,15.18
2023-04-12T13:55:17.224Z,15.38
2023-04-12T13:57:49.219Z,15.40
2023-04-12T14:00:19.994Z,15.46
2023-04-12T14:02:47.112Z,15.53
2023-04-12T14:05:14.285Z,15.68
2023-04-12T14:07:42.693Z,15.48
2023-04-12T14:10:10.856Z,15.63
2023-04-12T14:12:38.413Z,15.59
2023-04-12T14:15:06.969Z,15.69
2023-04-12T14:17:58.385Z,15.68
2023-04-12T14:20:29.296Z,15.56
2023-04-12T14:22:57.960Z,15.58
2023-04-12T14:25:25.260Z,15.41
2023-04-12T14:27:52.222Z,15.22
2023-04-12T14:30:19.357Z,14.95
2023-04-12T14:32:47.697Z,14.80
2023-04-12T14:35:14.989Z,14.83
2023-04-12T14:37:42.354Z,14.90
2023-04-12T14:40:12.810Z,14.94
2023-04-12T14:42:39.672Z,14.98
2023-04-12T14:45:08.557Z,15.01
2023-04-12T14:47:36.394Z,14.98
2023-04-12T14:50:03.624Z,14.94
2023-04-12T14:52:32.315Z,14.86
2023-04-12T14:55:01.558Z,14.77
2023-04-12T14:57:29.942Z,14.73
2023-04-12T14:59:56.860Z,14.58
2023-04-12T15:02:24.972Z,14.42
2023-04-12T15:04:52.554Z,14.28
2023-04-12T15:07:20.399Z,14.12
2023-04-12T15:09:48.145Z,13.91
2023-04-12T15:12:16.489Z,13.79
2023-04-12T15:14:45.678Z,13.17
2023-04-12T15:17:12.960Z,12.42
2023-04-12T15:19:40.090Z,12.09
2023-04-12T15:22:07.184Z,11.88
2023-04-12T15:24:34.421Z,11.73
2023-04-12T15:27:05.822Z,11.63
2023-04-12T15:29:35.898Z,11.61
2023-04-12T15:32:04.909Z,11.67
2023-04-12T15:34:31.998Z,11.76
2023-04-12T15:36:59.118Z,11.83
2023-04-12T15:39:26.383Z,11.75
2023-04-12T15:41:53.368Z,11.83
2023-04-12T15:44:20.275Z,11.87
2023-04-12T15:46:53.282Z,11.93
2023-04-12T15:49:33.119Z,12.03
2023-04-12T15:52:03.083Z,12.20
2023-04-12T15:54:30.273Z,12.27
2023-04-12T15:56:59.466Z,12.42
2023-04-12T15:59:27.846Z,12.58
2023-04-12T16:01:56.619Z,12.73
2023-04-12T16:04:24.402Z,12.78
2023-04-12T16:06:53.084Z,12.87
2023-04-12T16:09:19.939Z,12.77
2023-04-12T16:11:46.781Z,12.50
2023-04-12T16:14:14.014Z,12.28
2023-04-12T16:16:41.164Z,12.52
2023-04-12T16:19:08.119Z,12.70
2023-04-12T16:21:35.055Z,12.85
2023-04-12T16:24:03.638Z,12.89
2023-04-12T16:26:32.354Z,12.66
2023-04-12T16:28:59.453Z,12.85
2023-04-12T16:31:26.617Z,13.03
2023-04-12T16:33:54.019Z,13.18
2023-04-12T16:36:21.110Z,13.20
2023-04-12T16:38:48.848Z,13.28
2023-04-12T16:41:17.398Z,13.17
2023-04-12T16:43:45.553Z,13.03
2023-04-12T16:46:12.756Z,12.80
2023-04-12T16:48:40.089Z,12.75
2023-04-12T16:51:07.377Z,12.82
2023-04-12T16:53:34.354Z,12.81
2023-04-12T16:56:01.668Z,12.82
2023-04-12T16:58:30.323Z,12.79
2023-04-12T17:00:57.392Z,12.54
2023-04-12T17:03:24.974Z,12.50
2023-04-12T17:05:52.602Z,12.30
2023-04-12T17:08:19.464Z,12.22
2023-04-12T17:10:46.574Z,12.19
2023-04-12T17:13:17.818Z,12.11
2023-04-12T17:15:47.716Z,12.10
2023-04-12T17:18:14.725Z,11.93
2023-04-12T17:20:42.086Z,11.93
2023-04-12T17:23:09.483Z,11.93
2023-04-12T17:25:36.903Z,12.05
2023-04-12T17:28:04.173Z,11.97
2023-04-12T17:30:31.497Z,12.08
2023-04-12T17:33:00.656Z,12.06
2023-04-12T17:35:28.395Z,12.05
2023-04-12T17:37:55.637Z,11.96
2023-04-12T17:40:22.833Z,12.08
2023-04-12T17:42:49.646Z,12.04
2023-04-12T17:45:18.881Z,11.86
2023-04-12T17:47:45.873Z,11.74
2023-04-12T17:50:14.663Z,11.75
2023-04-12T17:52:41.683Z,11.65
2023-04-12T17:55:10.293Z,11.61
2023-04-12T17:57:37.482Z,11.60
2023-04-12T18:00:06.750Z,11.62
2023-04-12T18:02:39.797Z,11.67
2023-04-12T18:05:07.929Z,11.62
2023-04-12T18:07:36.379Z,11.57
2023-04-12T18:10:03.808Z,11.47
2023-04-12T18:12:31.116Z,11.31
2023-04-12T18:14:58.403Z,11.33
2023-04-12T18:17:26.622Z,11.26
2023-04-12T18:22:36.895Z,11.25
2023-04-12T18:25:04.460Z,11.25
2023-04-12T18:27:31.338Z,11.26
2023-04-12T18:29:58.466Z,11.24
2023-04-12T18:32:25.907Z,11.17
2023-04-12T18:34:52.829Z,11.17
2023-04-12T18:37:19.704Z,11.20
2023-04-12T18:39:49.294Z,11.18
2023-04-12T18:42:17.773Z,11.06
2023-04-12T18:44:45.622Z,11.05
2023-04-12T18:47:12.501Z,11.11
2023-04-12T18:49:39.410Z,11.00
2023-04-12T18:52:06.438Z,11.00
2023-04-12T18:54:33.551Z,10.97
2023-04-12T18:57:02.110Z,10.93
2023-04-12T18:59:29.719Z,10.91
2023-04-12T19:01:57.082Z,10.84
2023-04-12T19:04:24.125Z,10.83
2023-04-12T19:06:51.768Z,10.82
2023-04-12T19:09:19.079Z,10.77
2023-04-12T19:11:45.979Z,10.76
2023-04-12T19:14:14.482Z,10.70
2023-04-12T19:16:41.417Z,10.70
2023-04-12T19:19:08.692Z,10.74
2023-04-12T19:21:35.690Z,10.72
2023-04-12T19:24:02.819Z,10.72
2023-04-12T19:26:29.689Z,10.69
2023-04-12T19:28:56.689Z,10.68
2023-04-12T19:31:25.259Z,10.66
2023-04-12T19:33:55.303Z,10.57
2023-04-12T19:36:22.637Z,10.56
2023-04-12T19:38:49.563Z,10.58
2023-04-12T19:41:17.614Z,10.56
2023-04-12T19:43:44.686Z,10.59
2023-04-12T19:46:11.855Z,10.60
2023-04-12T19:49:05.645Z,10.60
2023-04-12T19:51:33.304Z,10.51
2023-04-12T19:54:00.659Z,10.47
2023-04-12T19:56:28.518Z,10.49
2023-04-12T19:58:55.615Z,10.44
2023-04-12T20:01:22.793Z,10.44
2023-04-12T20:03:49.711Z,10.42
2023-04-12T20:06:18.013Z,10.35
2023-04-12T20:08:45.234Z,10.35
2023-04-12T20:11:12.337Z,10.29
2023-04-12T20:13:39.209Z,10.32
2023-04-12T20:16:07.082Z,10.30
2023-04-12T20:18:34.022Z,10.31
2023-04-12T20:21:00.881Z,10.33
2023-04-12T20:23:29.102Z,10.35
2023-04-12T20:25:56.773Z,10.36
2023-04-12T20:28:23.810Z,10.59
2023-04-12T20:30:50.809Z,10.72
2023-04-12T20:33:17.948Z,10.58
2023-04-12T20:35:45.182Z,10.27
2023-04-12T20:38:12.654Z,9.81
2023-04-12T20:40:41.483Z,9.80
2023-04-12T20:43:08.738Z,9.73
2023-04-12T20:45:35.698Z,9.61
2023-04-12T20:48:02.712Z,8.80
2023-04-12T20:50:30.003Z,8.55
2023-04-12T20:52:57.134Z,8.27
2023-04-12T20:55:24.773Z,8.32
2023-04-12T20:57:53.424Z,8.45
2023-04-12T21:00:21.611Z,8.63
2023-04-12T21:02:49.012Z,8.75
2023-04-12T21:05:17.114Z,8.88
2023-04-12T21:07:44.204Z,8.98
2023-04-12T21:10:12.061Z,9.08
2023-04-12T21:12:40.228Z,9.21
2023-04-12T21:15:11.490Z,9.31
2023-04-12T21:17:39.718Z,9.15
2023-04-12T21:20:08.252Z,9.00
2023-04-12T21:22:35.572Z,8.75
2023-04-12T21:25:02.618Z,8.84
2023-04-12T21:27:29.772Z,8.86
2023-04-12T21:29:56.820Z,8.88
2023-04-12T21:32:25.474Z,8.90
2023-04-12T21:34:52.457Z,8.84
2023-04-12T21:37:19.495Z,8.84
2023-04-12T21:39:46.749Z,8.90
2023-04-12T21:42:13.933Z,8.80
2023-04-12T21:44:41.737Z,8.77
2023-04-12T21:47:09.029Z,8.86
2023-04-12T21:49:37.728Z,8.80
2023-04-12T21:52:04.996Z,8.84
2023-04-12T21:54:32.268Z,8.91
2023-04-12T21:57:01.551Z,9.04
2023-04-12T21:59:28.776Z,8.98
2023-04-12T22:01:56.022Z,9.00
2023-04-12T22:04:23.280Z,9.09
2023-04-12T22:06:51.679Z,9.16
2023-04-12T22:09:18.875Z,9.25
2023-04-12T22:11:45.899Z,9.29
2023-04-12T22:14:13.186Z,9.30
2023-04-12T22:16:40.613Z,9.25
2023-04-12T22:19:10.830Z,9.36
2023-04-12T22:21:40.743Z,9.39
2023-04-12T22:24:09.328Z,9.35
2023-04-12T22:26:36.376Z,9.47
2023-04-12T22:29:03.537Z,9.59
2023-04-12T22:31:30.921Z,9.68
2023-04-12T22:33:58.686Z,9.70
2023-04-12T22:36:28.491Z,9.75
2023-04-12T22:38:56.493Z,9.80
2023-04-12T22:41:25.102Z,9.83
2023-04-12T22:43:52.053Z,9.88
2023-04-12T22:46:19.285Z,9.86
2023-04-12T22:48:47.139Z,9.70
2023-04-12T22:51:14.814Z,9.61
2023-04-12T22:53:41.954Z,9.60
2023-04-12T22:56:09.105Z,9.55
2023-04-12T22:58:37.736Z,9.33
2023-04-12T23:01:05.516Z,9.15
2023-04-12T23:03:32.845Z,9.22
2023-04-12T23:05:59.899Z,9.34
2023-04-12T23:08:26.946Z,9.35
2023-04-12T23:10:54.009Z,9.39
2023-04-12T23:13:21.354Z,9.39
2023-04-12T23:15:49.925Z,9.29
2023-04-12T23:18:16.925Z,9.37
2023-04-12T23:20:43.921Z,9.33
2023-04-12T23:23:10.876Z,9.37
2023-04-12T23:28:24.262Z,9.13
2023-04-12T23:30:52.776Z,9.00
2023-04-12T23:33:21.788Z,9.10
2023-04-12T23:35:51.127Z,9.12
2023-04-12T23:38:18.419Z,9.19
2023-04-12T23:40:46.259Z,9.26
2023-04-12T23:43:13.650Z,9.34
2023-04-12T23:45:40.620Z,9.34
2023-04-12T23:48:09.133Z,9.34
2023-04-12T23:50:36.555Z,9.31
2023-04-12T23:53:04.925Z,9.36
2023-04-12T23:55:32.141Z,9.29
2023-04-12T23:57:59.174Z,9.04
